Time,TemperatureF,DewpointF,PressureIn,WindDirection,WindDirectionDegrees,WindSpeedMPH,WindSpeedGustMPH,Humidity,HourlyPrecipIn,Conditions,Clouds,dailyrainin,SoftwareType,DateUTC
2013-01-17 00:01:00,12.4,4.2,29.46,NW,317,9.0,10.0,69,0.00,,,0.00,Wunderground v.1.15,2013-01-17 05:01:00,
2013-01-17 00:10:00,12.0,3.1,29.46,NNW,329,8.0,8.0,67,0.00,,,0.00,Wunderground v.1.15,2013-01-17 05:10:00,
2013-01-17 00:20:00,12.0,3.8,29.46,NNW,332,8.0,9.0,69,0.00,,,0.00,Wunderground v.1.15,2013-01-17 05:20:00,
2013-01-17 00:30:00,12.0,4.7,29.46,North,355,8.0,15.0,72,0.00,,,0.00,Wunderground v.1.15,2013-01-17 05:30:00,
2013-01-17 00:40:00,11.7,4.7,29.47,NW,321,8.0,8.0,73,0.00,,,0.00,Wunderground v.1.15,2013-01-17 05:40:00,
2013-01-17 00:50:00,11.9,6.1,29.48,NNW,338,9.0,9.0,77,0.00,,,0.00,Wunderground v.1.15,2013-01-17 05:50:00,
2013-01-17 01:00:00,11.5,5.4,29.49,NNW,336,10.0,10.0,76,0.00,,,0.00,Wunderground v.1.15,2013-01-17 06:00:00,
2013-01-17 01:10:00,11.3,6.3,29.50,NNW,330,9.0,9.0,80,0.00,,,0.00,Wunderground v.1.15,2013-01-17 06:10:00,
2013-01-17 01:20:00,11.3,6.3,29.50,NW,325,9.0,10.0,80,0.00,,,0.00,Wunderground v.1.15,2013-01-17 06:20:00,
2013-01-17 01:30:00,11.2,6.5,29.51,NNW,334,9.0,11.0,81,0.00,,,0.00,Wunderground v.1.15,2013-01-17 06:30:00,
2013-01-17 01:40:00,11.3,6.9,29.51,NNW,327,9.0,11.0,82,0.00,,,0.00,Wunderground v.1.15,2013-01-17 06:40:00,
2013-01-17 01:50:00,10.7,6.0,29.52,NNW,333,9.0,9.0,81,0.00,,,0.00,Wunderground v.1.15,2013-01-17 06:50:00,
2013-01-17 02:00:00,10.4,5.7,29.52,NNW,331,10.0,10.0,81,0.00,,,0.00,Wunderground v.1.15,2013-01-17 07:00:00,
2013-01-17 02:10:00,10.2,5.5,29.53,NNW,327,9.0,12.0,81,0.00,,,0.00,Wunderground v.1.15,2013-01-17 07:10:00,
2013-01-17 10:30:00,9.5,2.9,29.62,NW,315,9.0,9.0,74,0.00,,,0.00,Wunderground v.1.15,2013-01-17 15:30:00,
2013-01-17 10:40:00,9.4,3.6,29.62,WNW,300,10.0,11.0,77,0.00,,,0.00,Wunderground v.1.15,2013-01-17 15:40:00,
2013-01-17 10:50:00,9.9,5.0,29.63,NNE,22,10.0,10.0,80,0.00,,,0.00,Wunderground v.1.15,2013-01-17 15:50:00,
2013-01-17 11:00:00,9.6,4.9,29.63,NW,317,8.0,8.0,81,0.00,,,0.00,Wunderground v.1.15,2013-01-17 16:00:00,
2013-01-17 11:10:00,9.5,5.1,29.64,NW,309,10.0,12.0,82,0.00,,,0.00,Wunderground v.1.15,2013-01-17 16:10:00,
2013-01-17 11:20:00,9.8,5.9,29.64,NW,304,9.0,10.0,84,0.00,,,0.00,Wunderground v.1.15,2013-01-17 16:20:00,
2013-01-17 11:30:00,9.9,6.3,29.64,WNW,303,9.0,12.0,85,0.00,,,0.00,Wunderground v.1.15,2013-01-17 16:30:00,
2013-01-17 11:40:00,10.0,6.6,29.64,NW,306,8.0,9.0,86,0.00,,,0.00,Wunderground v.1.15,2013-01-17 16:40:00,
2013-01-17 11:50:00,10.1,6.7,29.64,NW,322,10.0,11.0,86,0.00,,,0.00,Wunderground v.1.15,2013-01-17 16:50:00,
2013-01-17 12:00:00,10.3,6.7,29.63,NW,322,10.0,10.0,85,0.00,,,0.00,Wunderground v.1.15,2013-01-17 17:00:00,
2013-01-17 12:10:00,10.6,7.0,29.63,NW,309,11.0,11.0,85,0.00,,,0.00,Wunderground v.1.15,2013-01-17 17:10:00,
2013-01-17 12:20:00,10.6,6.7,29.63,NW,325,10.0,12.0,84,0.00,,,0.00,Wunderground v.1.15,2013-01-17 17:20:00,
2013-01-17 12:30:00,10.5,7.1,29.63,NW,313,10.0,10.0,86,0.00,,,0.00,Wunderground v.1.15,2013-01-17 17:30:00,
2013-01-17 12:40:00,10.5,6.9,29.62,NNW,344,11.0,11.0,85,0.00,,,0.00,Wunderground v.1.15,2013-01-17 17:40:00,
2013-01-17 12:50:00,10.5,7.1,29.62,WNW,301,11.0,12.0,86,0.00,,,0.00,Wunderground v.1.15,2013-01-17 17:50:00,
2013-01-17 13:00:00,10.7,7.1,29.62,NW,311,10.0,10.0,85,0.00,,,0.00,Wunderground v.1.15,2013-01-17 18:00:00,
2013-01-17 13:10:00,10.3,6.7,29.62,NW,306,11.0,11.0,85,0.00,,,0.00,Wunderground v.1.15,2013-01-17 18:10:00,
2013-01-17 13:20:00,10.7,7.3,29.62,WNW,294,11.0,13.0,86,0.00,,,0.00,Wunderground v.1.15,2013-01-17 18:20:00,
2013-01-17 13:30:00,10.4,6.5,29.62,NNW,329,12.0,13.0,84,0.00,,,0.00,Wunderground v.1.15,2013-01-17 18:30:00,
2013-01-17 13:40:00,10.4,6.8,29.62,NNW,336,12.0,12.0,85,0.00,,,0.00,Wunderground v.1.15,2013-01-17 18:40:00,
2013-01-17 13:50:00,10.3,6.4,29.62,NW,305,11.0,11.0,84,0.00,,,0.00,Wunderground v.1.15,2013-01-17 18:50:00,
2013-01-17 14:00:00,10.1,6.2,29.62,NW,304,11.0,11.0,84,0.00,,,0.00,Wunderground v.1.15,2013-01-17 19:00:00,
2013-01-17 14:10:00,9.9,6.3,29.62,NW,325,11.0,11.0,85,0.00,,,0.00,Wunderground v.1.15,2013-01-17 19:10:00,
2013-01-17 14:20:00,9.9,6.6,29.62,WNW,299,11.0,12.0,86,0.00,,,0.00,Wunderground v.1.15,2013-01-17 19:20:00,
2013-01-17 14:30:00,9.9,6.3,29.62,WNW,298,10.0,11.0,85,0.00,,,0.00,Wunderground v.1.15,2013-01-17 19:30:00,
2013-01-17 14:40:00,10.0,6.1,29.62,NNW,345,10.0,13.0,84,0.00,,,0.00,Wunderground v.1.15,2013-01-17 19:40:00,
2013-01-17 14:50:00,10.0,5.9,29.61,WNW,300,10.0,10.0,83,0.00,,,0.00,Wunderground v.1.15,2013-01-17 19:50:00,
2013-01-17 15:00:00,9.9,6.0,29.61,NW,315,9.0,9.0,84,0.00,,,0.00,Wunderground v.1.15,2013-01-17 20:00:00,
2013-01-17 15:10:00,9.9,6.0,29.62,WNW,302,9.0,11.0,84,0.00,,,0.00,Wunderground v.1.15,2013-01-17 20:10:00,
2013-01-17 15:20:00,10.2,6.3,29.62,NW,306,8.0,9.0,84,0.00,,,0.00,Wunderground v.1.15,2013-01-17 20:20:00,
2013-01-17 15:30:00,10.0,6.4,29.62,West,273,8.0,11.0,85,0.00,,,0.00,Wunderground v.1.15,2013-01-17 20:30:00,
2013-01-17 15:40:00,10.2,6.3,29.62,WSW,245,9.0,14.0,84,0.00,,,0.00,Wunderground v.1.15,2013-01-17 20:40:00,
2013-01-17 15:50:00,10.2,6.6,29.62,NW,315,9.0,12.0,85,0.00,,,0.00,Wunderground v.1.15,2013-01-17 20:50:00,
2013-01-17 16:00:00,10.6,6.7,29.62,NW,305,10.0,10.0,84,0.00,,,0.00,Wunderground v.1.15,2013-01-17 21:00:00,
2013-01-17 16:10:00,10.7,6.6,29.63,WNW,303,9.0,9.0,83,0.00,,,0.00,Wunderground v.1.15,2013-01-17 21:10:00,
2013-01-17 16:20:00,10.6,6.5,29.63,NW,317,9.0,9.0,83,0.00,,,0.00,Wunderground v.1.15,2013-01-17 21:20:00,
2013-01-17 16:30:00,10.9,6.2,29.63,NW,308,9.0,9.0,81,0.00,,,0.00,Wunderground v.1.15,2013-01-17 21:30:00,
2013-01-17 16:40:00,10.7,6.0,29.63,WNW,302,7.0,11.0,81,0.00,,,0.00,Wunderground v.1.15,2013-01-17 21:40:00,
2013-01-17 16:50:00,10.7,6.6,29.63,WNW,298,9.0,11.0,83,0.00,,,0.00,Wunderground v.1.15,2013-01-17 21:50:00,
2013-01-17 17:00:00,10.4,6.3,29.64,NW,313,8.0,8.0,83,0.00,,,0.00,Wunderground v.1.15,2013-01-17 22:00:00,
2013-01-17 17:10:00,10.5,6.6,29.64,NW,304,8.0,8.0,84,0.00,,,0.00,Wunderground v.1.15,2013-01-17 22:10:00,
2013-01-17 17:20:00,10.9,6.2,29.64,NW,309,9.0,9.0,81,0.00,,,0.00,Wunderground v.1.15,2013-01-17 22:20:00,
2013-01-17 17:30:00,11.3,6.6,29.64,WNW,284,7.0,7.0,81,0.00,,,0.00,Wunderground v.1.15,2013-01-17 22:30:00,
2013-01-17 17:40:00,11.4,6.7,29.64,NW,319,8.0,8.0,81,0.00,,,0.00,Wunderground v.1.15,2013-01-17 22:40:00,
2013-01-17 17:50:00,11.4,6.4,29.65,NW,325,7.0,13.0,80,0.00,,,0.00,Wunderground v.1.15,2013-01-17 22:50:00,
2013-01-17 18:00:00,11.4,6.4,29.65,WSW,253,7.0,7.0,80,0.00,,,0.00,Wunderground v.1.15,2013-01-17 23:00:00,
2013-01-17 18:10:00,10.9,6.5,29.65,West,276,6.0,6.0,82,0.00,,,0.00,Wunderground v.1.15,2013-01-17 23:10:00,
2013-01-17 18:20:00,11.1,6.9,29.65,WNW,287,4.0,4.0,83,0.00,,,0.00,Wunderground v.1.15,2013-01-17 23:20:00,
2013-01-17 18:30:00,11.1,7.5,29.65,WNW,300,6.0,10.0,85,0.00,,,0.00,Wunderground v.1.15,2013-01-17 23:30:00,
2013-01-17 18:40:00,11.6,6.9,29.65,NW,311,7.0,8.0,81,0.00,,,0.00,Wunderground v.1.15,2013-01-17 23:40:00,
2013-01-17 18:50:00,11.5,7.9,29.65,NW,313,5.0,9.0,85,0.00,,,0.00,Wunderground v.1.15,2013-01-17 23:50:00,
2013-01-17 19:00:00,11.4,7.5,29.65,West,267,4.0,4.0,84,0.00,,,0.00,Wunderground v.1.15,2013-01-18 00:00:00,
2013-01-17 19:10:00,11.4,7.8,29.64,NW,313,4.0,8.0,85,0.00,,,0.00,Wunderground v.1.15,2013-01-18 00:10:00,
2013-01-17 19:20:00,12.4,6.6,29.64,NW,307,7.0,9.0,77,0.00,,,0.00,Wunderground v.1.15,2013-01-18 00:20:00,
2013-01-17 19:30:00,12.7,6.0,29.64,WNW,300,9.0,10.0,74,0.00,,,0.00,Wunderground v.1.15,2013-01-18 00:30:00,
2013-01-17 19:40:00,12.8,6.9,29.65,NW,315,8.0,8.0,77,0.00,,,0.00,Wunderground v.1.15,2013-01-18 00:40:00,
2013-01-17 19:50:00,13.0,6.3,29.65,WNW,302,9.0,13.0,74,0.00,,,0.00,Wunderground v.1.15,2013-01-18 00:50:00,
2013-01-17 20:00:00,13.0,6.3,29.65,NNW,333,8.0,8.0,74,0.00,,,0.00,Wunderground v.1.15,2013-01-18 01:00:00,
2013-01-17 20:10:00,13.1,5.8,29.64,WNW,299,9.0,9.0,72,0.00,,,0.00,Wunderground v.1.15,2013-01-18 01:10:00,
2013-01-17 20:20:00,13.2,6.5,29.64,NNW,341,9.0,9.0,74,0.00,,,0.00,Wunderground v.1.15,2013-01-18 01:20:00,
2013-01-17 20:30:00,13.3,6.6,29.64,NW,311,9.0,11.0,74,0.00,,,0.00,Wunderground v.1.15,2013-01-18 01:30:00,
2013-01-17 20:40:00,13.2,5.6,29.64,NW,304,8.0,10.0,71,0.00,,,0.00,Wunderground v.1.15,2013-01-18 01:40:00,
2013-01-17 20:50:00,13.1,6.7,29.65,WNW,300,9.0,9.0,75,0.00,,,0.00,Wunderground v.1.15,2013-01-18 01:50:00,
2013-01-17 21:00:00,12.7,7.7,29.65,NW,317,8.0,8.0,80,0.00,,,0.00,Wunderground v.1.15,2013-01-18 02:00:00,
2013-01-17 21:10:00,12.9,6.8,29.65,WNW,295,8.0,11.0,76,0.00,,,0.00,Wunderground v.1.15,2013-01-18 02:10:00,
2013-01-17 21:20:00,12.9,5.6,29.64,NW,308,9.0,13.0,72,0.00,,,0.00,Wunderground v.1.15,2013-01-18 02:20:00,
2013-01-17 21:30:00,12.8,6.4,29.64,NW,311,8.0,10.0,75,0.00,,,0.00,Wunderground v.1.15,2013-01-18 02:30:00,
2013-01-17 21:40:00,12.7,7.1,29.64,NW,311,8.0,9.0,78,0.00,,,0.00,Wunderground v.1.15,2013-01-18 02:40:00,
2013-01-17 21:50:00,12.9,6.8,29.64,NW,307,9.0,9.0,76,0.00,,,0.00,Wunderground v.1.15,2013-01-18 02:50:00,
2013-01-17 22:00:00,12.6,5.6,29.64,NW,313,8.0,8.0,73,0.00,,,0.00,Wunderground v.1.15,2013-01-18 03:00:00,
2013-01-17 22:10:00,12.8,6.7,29.64,NW,309,7.0,7.0,76,0.00,,,0.00,Wunderground v.1.15,2013-01-18 03:10:00,
2013-01-17 22:20:00,12.5,6.7,29.64,WNW,293,6.0,6.0,77,0.00,,,0.00,Wunderground v.1.15,2013-01-18 03:20:00,
2013-01-17 22:30:00,12.9,5.6,29.64,NW,316,5.0,7.0,72,0.00,,,0.00,Wunderground v.1.15,2013-01-18 03:30:00,
2013-01-17 22:40:00,13.1,4.5,29.64,NW,317,5.0,6.0,68,0.00,,,0.00,Wunderground v.1.15,2013-01-18 03:40:00,
2013-01-17 22:50:00,13.2,4.3,29.64,NW,318,5.0,7.0,67,0.00,,,0.00,Wunderground v.1.15,2013-01-18 03:50:00,
2013-01-17 23:00:00,13.2,4.6,29.63,WNW,300,6.0,6.0,68,0.00,,,0.00,Wunderground v.1.15,2013-01-18 04:00:00,
2013-01-17 23:10:00,13.2,4.9,29.64,NW,307,6.0,6.0,69,0.00,,,0.00,Wunderground v.1.15,2013-01-18 04:10:00,
2013-01-17 23:20:00,13.2,5.2,29.64,NW,315,7.0,7.0,70,0.00,,,0.00,Wunderground v.1.15,2013-01-18 04:20:00,
2013-01-17 23:30:00,13.5,5.8,29.63,NW,309,7.0,7.0,71,0.00,,,0.00,Wunderground v.1.15,2013-01-18 04:30:00,
2013-01-17 23:40:00,13.4,5.7,29.63,NW,310,6.0,11.0,71,0.00,,,0.00,Wunderground v.1.15,2013-01-18 04:40:00,
2013-01-17 23:50:00,13.8,6.4,29.63,WNW,295,6.0,6.0,72,0.00,,,0.00,Wunderground v.1.15,2013-01-18 04:50:00,